Time;durP1;ratioP1;P1;durP2;ratioP2;P2;SDS_P1;SDS_P2;PMS_P1;PMS_P2;Temp;Humidity;BMP_temperature;BMP_pressure;BME280_temperature;BME280_humidity;BME280_pressure;Samples;Min_cycle;Max_cycle;Signal;HPM_P1;HPM_P2
2022/07/02 10:38:43;;;;;;;;;;;;;;;28.98;100.00;98691.53;5880983;24;19966;31
2022/07/02 10:41:11;;;;;;;;;;;;;;;28.95;100.00;98701.22;4783237;29;20256;-83
2022/07/02 10:43:39;;;;;;;;;;;;;;;28.94;100.00;98691.00;4788292;29;20382;-81
2022/07/02 10:46:08;;;;;;;;;;;;;;;29.07;100.00;98699.19;4790891;30;19961;-84
2022/07/02 10:48:46;;;;;;;;;;;;;;;29.25;100.00;98690.16;4808075;29;19959;-83
2022/07/02 10:51:20;;;;;;;;;;;;;;;29.17;100.00;98695.59;4806196;29;19965;-79
2022/07/02 10:53:51;;;;;;;;;;;;;;;29.22;99.32;98697.75;4793272;29;19952;-79
2022/07/02 10:56:19;;;;;;;;;;;;;;;29.07;95.98;98694.25;4807191;29;20252;-82
2022/07/02 10:58:46;;;;;;;;;;;;;;;29.35;94.94;98693.63;4809236;29;19983;-80
2022/07/02 11:01:15;;;;;;;;;;;;;;;29.35;99.69;98691.53;4805120;29;19978;-84
2022/07/02 11:03:58;;;;;;;;;;;;;;;29.46;100.00;98690.81;4802655;29;19958;-76
2022/07/02 11:06:27;;;;;;;;;;;;;;;29.41;95.91;98695.25;4801695;29;19953;-75
2022/07/02 11:08:56;;;;;;;;;;;;;;;29.35;95.49;98691.53;4807066;29;19950;-75
2022/07/02 11:11:52;;;;;;;;;;;;;;;29.46;98.90;98687.91;4809940;29;19958;-75
2022/07/02 11:14:20;;;;;;;;;;;;;;;29.60;97.43;98684.84;4801678;29;19957;-76
2022/07/02 11:16:51;;;;;;;;;;;;;;;29.72;97.55;98682.78;4808174;29;19951;-74
2022/07/02 11:19:20;;;;;;;;;;;;;;;29.77;89.11;98688.59;4807560;29;19959;-75
2022/07/02 11:21:47;;;;;;;;;;;;;;;29.76;90.30;98680.44;4807244;29;20090;-76
2022/07/02 11:24:16;;;;;;;;;;;;;;;29.57;91.54;98688.75;4807639;29;19967;-75
2022/07/02 11:26:45;;;;;;;;;;;;;;;29.69;91.45;98690.38;4807110;29;19957;-74
2022/07/02 11:29:12;;;;;;;;;;;;;;;29.79;91.90;98680.22;4808429;29;20275;-75
2022/07/02 11:31:46;;;;;;;;;;;;;;;29.76;93.52;98684.09;4806094;29;19948;-75
2022/07/02 11:34:18;;;;;;;;;;;;;;;29.67;91.27;98684.34;4807074;29;20605;-76
2022/07/02 11:36:46;;;;;;;;;;;;;;;29.63;94.59;98683.00;4801728;29;20257;-74
2022/07/02 11:39:14;;;;;;;;;;;;;;;29.69;91.44;98670.19;4807621;29;19974;-75
2022/07/02 11:41:44;;;;;;;;;;;;;;;29.60;89.74;98673.31;4801487;29;19962;-75
2022/07/02 11:44:17;;;;;;;;;;;;;;;29.85;99.17;98665.81;4798570;29;19961;-75
2022/07/02 11:46:47;;;;;;;;;;;;;;;29.90;90.49;98656.41;4800196;29;20566;-74
2022/07/02 11:49:22;;;;;;;;;;;;;;;29.97;96.98;98664.53;4805861;29;20268;-73
2022/07/02 11:51:51;;;;;;;;;;;;;;;30.04;94.12;98657.47;4808029;29;20347;-74
2022/07/02 11:54:21;;;;;;;;;;;;;;;30.09;95.03;98659.56;4807795;29;20437;-74
2022/07/02 11:56:51;;;;;;;;;;;;;;;30.17;88.05;98649.91;4809015;29;19950;-74
2022/07/02 11:59:21;;;;;;;;;;;;;;;30.07;85.64;98663.00;4808322;29;19955;-74
2022/07/02 12:01:49;;;;;;;;;;;;;;;30.27;86.57;98659.88;4807750;29;19976;-74
2022/07/02 12:04:19;;;;;;;;;;;;;;;30.16;89.87;98654.06;4808018;29;19960;-74
2022/07/02 12:06:47;;;;;;;;;;;;;;;30.19;91.05;98661.69;4806116;29;20264;-74
2022/07/02 12:09:16;;;;;;;;;;;;;;;30.28;93.75;98652.78;4808199;29;19954;-72
2022/07/02 12:11:44;;;;;;;;;;;;;;;30.44;86.38;98640.50;4808162;29;19954;-73
2022/07/02 12:14:12;;;;;;;;;;;;;;;30.39;93.64;98641.28;4807582;29;19959;-73
2022/07/02 12:16:40;;;;;;;;;;;;;;;30.37;88.53;98628.69;4800837;29;19960;-74
2022/07/02 12:19:14;;;;;;;;;;;;;;;30.36;90.56;98633.66;4807470;29;19953;-73
2022/07/02 12:21:42;;;;;;;;;;;;;;;30.28;87.36;98629.69;4807875;29;20269;-73
2022/07/02 12:24:25;;;;;;;;;;;;;;;30.13;89.98;98632.03;4807704;29;19964;-74
2022/07/02 12:26:59;;;;;;;;;;;;;;;30.23;88.72;98621.03;4802800;29;19958;-73
2022/07/02 12:32:18;;;;;;;;;;;;;;;30.26;87.47;98622.88;4807377;29;20351;-74
2022/07/02 12:34:47;;;;;;;;;;;;;;;30.37;75.95;98626.56;4802978;29;20321;-75
2022/07/02 12:37:21;;;;;;;;;;;;;;;30.44;87.56;98620.28;4806569;29;20353;-74
2022/07/02 12:39:55;;;;;;;;;;;;;;;30.47;88.67;98625.00;4806921;29;20360;-74
2022/07/02 12:42:23;;;;;;;;;;;;;;;30.43;86.58;98623.69;4807748;29;19972;-74
2022/07/02 12:44:52;;;;;;;;;;;;;;;30.61;91.96;98625.25;4803571;29;19950;-74
2022/07/02 12:47:25;;;;;;;;;;;;;;;30.58;92.27;98626.31;4802713;29;19954;-74
2022/07/02 12:50:00;;;;;;;;;;;;;;;30.66;96.85;98621.56;4804200;29;19959;-74
2022/07/02 12:52:28;;;;;;;;;;;;;;;30.63;90.36;98619.75;4807259;29;19953;-74
2022/07/02 12:54:56;;;;;;;;;;;;;;;30.49;82.29;98628.13;4807089;29;19955;-74
2022/07/02 12:57:24;;;;;;;;;;;;;;;30.48;74.32;98626.56;4805723;29;19966;-75
2022/07/02 12:59:52;;;;;;;;;;;;;;;30.38;76.54;98627.34;4806098;29;19952;-74
2022/07/02 13:02:25;;;;;;;;;;;;;;;30.40;79.27;98624.72;4805855;29;19971;-74
2022/07/02 13:04:52;;;;;;;;;;;;;;;30.37;85.24;98617.91;4801277;29;20025;-76
2022/07/02 13:07:19;;;;;;;;;;;;;;;30.50;83.60;98623.94;4808199;29;19960;-75
2022/07/02 13:09:47;;;;;;;;;;;;;;;30.44;82.45;98622.38;4807629;29;19975;-75
2022/07/02 13:12:15;;;;;;;;;;;;;;;30.39;83.32;98615.31;4806815;29;20393;-74
2022/07/02 13:14:44;;;;;;;;;;;;;;;30.35;84.05;98620.53;4808209;29;20057;-75
2022/07/02 13:17:13;;;;;;;;;;;;;;;30.44;83.64;98617.41;4807815;29;19960;-75
2022/07/02 13:20:00;;;;;;;;;;;;;;;30.55;84.14;98616.59;4807863;29;19962;-75
2022/07/02 13:22:28;;;;;;;;;;;;;;;30.46;78.77;98619.75;4804412;29;19966;-76
2022/07/02 13:24:56;;;;;;;;;;;;;;;30.51;74.10;98614.00;4808493;29;19957;-76
2022/07/02 13:27:23;;;;;;;;;;;;;;;30.62;66.25;98603.75;4806865;29;20240;-75
2022/07/02 13:29:50;;;;;;;;;;;;;;;30.73;69.58;98613.16;4806103;29;19953;-75
2022/07/02 13:32:18;;;;;;;;;;;;;;;30.79;80.24;98608.16;4810070;29;19949;-75
2022/07/02 13:34:45;;;;;;;;;;;;;;;30.69;72.93;98606.84;4808386;29;20282;-76
2022/07/02 13:37:13;;;;;;;;;;;;;;;30.82;77.20;98612.09;4809758;29;20252;-75
2022/07/02 13:39:42;;;;;;;;;;;;;;;30.77;70.21;98612.88;4810692;29;20034;-75
2022/07/02 13:42:09;;;;;;;;;;;;;;;30.79;71.64;98616.06;4808011;29;19961;-75
2022/07/02 13:44:37;;;;;;;;;;;;;;;30.77;61.99;98610.78;4810284;29;19950;-74
2022/07/02 13:47:04;;;;;;;;;;;;;;;30.78;67.82;98608.69;4808976;29;20451;-75
2022/07/02 13:49:32;;;;;;;;;;;;;;;30.85;71.84;98603.16;4807616;29;19952;-75
2022/07/02 13:51:59;;;;;;;;;;;;;;;30.71;73.35;98604.25;4809959;29;20245;-75
2022/07/02 13:54:28;;;;;;;;;;;;;;;30.62;74.81;98616.06;4807751;29;19968;-75
2022/07/02 13:56:55;;;;;;;;;;;;;;;30.54;69.34;98604.25;4807226;29;20246;-75
2022/07/02 13:59:22;;;;;;;;;;;;;;;30.61;75.97;98599.28;4809774;29;19958;-75
2022/07/02 14:01:50;;;;;;;;;;;;;;;30.60;70.27;98589.03;4808817;29;19976;-75
2022/07/02 14:04:17;;;;;;;;;;;;;;;30.61;75.67;98588.53;4809744;29;19959;-76
2022/07/02 14:06:44;;;;;;;;;;;;;;;30.64;74.49;98587.44;4808955;29;19956;-75
2022/07/02 14:09:12;;;;;;;;;;;;;;;30.70;74.91;98581.66;4808928;29;20443;-75
2022/07/02 14:11:39;;;;;;;;;;;;;;;30.70;67.80;98587.44;4803589;29;19954;-75
2022/07/02 14:14:07;;;;;;;;;;;;;;;30.64;65.87;98595.34;4809430;29;19952;-75
2022/07/02 14:16:37;;;;;;;;;;;;;;;30.59;68.68;98581.69;4809064;29;19948;-75
2022/07/02 14:19:04;;;;;;;;;;;;;;;30.56;69.55;98580.66;4810790;29;19957;-75
2022/07/02 14:21:32;;;;;;;;;;;;;;;30.52;62.46;98583.78;4809983;29;19963;-75
2022/07/02 14:23:59;;;;;;;;;;;;;;;30.69;62.38;98591.66;4809548;29;19961;-75
2022/07/02 14:26:26;;;;;;;;;;;;;;;30.59;70.57;98585.38;4808980;29;19953;-75
2022/07/02 14:28:53;;;;;;;;;;;;;;;30.59;65.18;98581.69;4809795;29;19952;-75
2022/07/02 14:31:21;;;;;;;;;;;;;;;30.57;61.20;98575.66;4805364;29;19959;-75
2022/07/02 14:33:48;;;;;;;;;;;;;;;30.61;65.30;98581.94;4807094;29;19959;-75
2022/07/02 14:36:15;;;;;;;;;;;;;;;30.76;63.61;98576.69;4809216;29;19948;-75
2022/07/02 14:38:43;;;;;;;;;;;;;;;30.82;65.51;98584.00;4809103;29;20249;-74
2022/07/02 14:43:55;;;;;;;;;;;;;;;30.78;66.15;98580.59;4809205;29;19977;-75
2022/07/02 14:46:29;;;;;;;;;;;;;;;30.87;63.78;98579.53;4807232;29;19957;-75
2022/07/02 14:48:57;;;;;;;;;;;;;;;30.85;62.16;98579.28;4806717;29;19965;-75
2022/07/02 14:51:25;;;;;;;;;;;;;;;30.79;62.44;98573.50;4808077;29;19953;-74
2022/07/02 14:53:53;;;;;;;;;;;;;;;30.84;63.04;98574.78;4809188;29;19964;-75
2022/07/02 14:56:21;;;;;;;;;;;;;;;30.80;66.85;98575.09;4802270;29;20260;-75
2022/07/02 14:58:48;;;;;;;;;;;;;;;30.79;66.09;98572.75;4804602;29;19949;-75
2022/07/02 15:01:16;;;;;;;;;;;;;;;30.84;64.18;98575.59;4808162;29;20304;-75
2022/07/02 15:03:43;;;;;;;;;;;;;;;30.84;65.51;98577.69;4808231;29;20260;-75
2022/07/02 15:06:10;;;;;;;;;;;;;;;30.82;64.17;98568.78;4813798;29;19952;-75
2022/07/02 15:08:38;;;;;;;;;;;;;;;30.80;75.20;98575.09;4810032;29;19956;-76
2022/07/02 15:11:05;;;;;;;;;;;;;;;30.83;70.12;98567.47;4806817;29;19956;-74
2022/07/02 15:16:18;;;;;;;;;;;;;;;30.81;73.47;98573.00;4808982;29;19952;-74
2022/07/02 15:18:45;;;;;;;;;;;;;;;30.78;72.91;98562.50;4809014;29;19959;-75
2022/07/02 15:21:18;;;;;;;;;;;;;;;30.70;75.61;98567.22;4809800;29;19955;-75
2022/07/02 15:23:48;;;;;;;;;;;;;;;30.68;70.05;98573.53;4792739;29;19986;-75
2022/07/02 15:26:20;;;;;;;;;;;;;;;30.66;68.45;98561.75;4803512;29;19981;-75
2022/07/02 15:28:48;;;;;;;;;;;;;;;30.62;66.46;98555.44;4806485;29;19956;-75
2022/07/02 15:31:19;;;;;;;;;;;;;;;30.62;67.71;98551.78;4808458;29;19951;-75
2022/07/02 15:33:47;;;;;;;;;;;;;;;30.64;71.54;98555.69;4808436;29;20264;-75
2022/07/02 15:36:16;;;;;;;;;;;;;;;30.60;69.60;98557.28;4808013;29;19952;-75
2022/07/02 15:38:43;;;;;;;;;;;;;;;30.56;70.14;98548.91;4806501;29;19961;-75
2022/07/02 15:41:11;;;;;;;;;;;;;;;30.57;70.13;98549.69;4808688;29;19949;-75
2022/07/02 15:43:40;;;;;;;;;;;;;;;30.49;72.22;98537.91;4808930;29;19967;-75
2022/07/02 15:46:07;;;;;;;;;;;;;;;30.48;67.53;98534.22;4808117;29;19951;-75
2022/07/02 15:48:35;;;;;;;;;;;;;;;30.49;70.51;98535.78;4806891;29;19956;-75
2022/07/02 15:51:12;;;;;;;;;;;;;;;30.42;72.05;98530.53;4808765;29;19958;-75
2022/07/02 15:53:42;;;;;;;;;;;;;;;30.48;71.91;98539.19;4792706;29;19950;-74
2022/07/02 15:56:10;;;;;;;;;;;;;;;30.51;71.12;98529.50;4808029;29;20366;-74
2022/07/02 15:58:46;;;;;;;;;;;;;;;30.49;67.40;98532.13;4807616;29;20212;-75
2022/07/02 16:01:13;;;;;;;;;;;;;;;30.51;69.24;98529.50;4792643;29;19952;-75
2022/07/02 16:03:49;;;;;;;;;;;;;;;30.47;74.08;98518.22;4800400;29;19967;-75
2022/07/02 16:06:20;;;;;;;;;;;;;;;30.46;73.67;98533.97;4808400;29;19955;-75
2022/07/02 16:08:48;;;;;;;;;;;;;;;30.37;72.84;98530.56;4808592;29;19951;-75
2022/07/02 16:11:16;;;;;;;;;;;;;;;30.37;77.20;98524.81;4808329;29;19988;-74
2022/07/02 16:13:44;;;;;;;;;;;;;;;30.33;73.69;98527.91;4807952;29;20332;-76
2022/07/02 16:16:14;;;;;;;;;;;;;;;30.33;72.84;98532.91;4808710;29;19968;-74
2022/07/02 16:18:42;;;;;;;;;;;;;;;30.25;73.98;98517.44;4808070;29;19953;-75
2022/07/02 16:21:12;;;;;;;;;;;;;;;30.27;76.91;98509.06;4807633;29;20241;-75
2022/07/02 16:23:40;;;;;;;;;;;;;;;30.21;75.76;98514.81;4805560;29;19978;-75
2022/07/02 16:26:08;;;;;;;;;;;;;;;30.16;72.89;98511.94;4802366;29;19949;-75
2022/07/02 16:28:36;;;;;;;;;;;;;;;30.14;74.07;98511.69;4807632;29;19953;-76
2022/07/02 16:31:04;;;;;;;;;;;;;;;30.08;73.27;98525.34;4808844;29;19948;-75
2022/07/02 16:33:42;;;;;;;;;;;;;;;30.08;72.79;98517.44;4807814;29;19956;-75
2022/07/02 16:36:10;;;;;;;;;;;;;;;30.02;73.86;98518.75;4807035;29;19957;-75
2022/07/02 16:38:38;;;;;;;;;;;;;;;29.92;80.13;98509.59;4806014;29;19952;-75
2022/07/02 16:41:06;;;;;;;;;;;;;;;29.83;75.02;98516.41;4806139;29;19977;-75
2022/07/02 16:43:35;;;;;;;;;;;;;;;29.80;75.52;98520.34;4805450;29;19972;-75
2022/07/02 16:46:07;;;;;;;;;;;;;;;29.77;75.70;98523.47;4797767;29;19953;-75
2022/07/02 16:48:38;;;;;;;;;;;;;;;29.75;75.95;98517.41;4806994;29;20049;-75
2022/07/02 16:51:05;;;;;;;;;;;;;;;29.71;79.38;98517.66;4810373;29;19958;-75
2022/07/02 16:53:33;;;;;;;;;;;;;;;29.68;77.68;98512.19;4808204;29;19970;-76
2022/07/02 16:56:00;;;;;;;;;;;;;;;29.61;79.15;98507.72;4811310;29;19948;-75
2022/07/02 16:58:27;;;;;;;;;;;;;;;29.61;84.90;98509.81;4795415;29;19958;-75
2022/07/02 17:00:56;;;;;;;;;;;;;;;29.51;74.82;98506.41;4807994;29;20342;-75
2022/07/02 17:03:25;;;;;;;;;;;;;;;29.50;78.75;98512.66;4810649;29;19971;-75
2022/07/02 17:05:52;;;;;;;;;;;;;;;29.45;76.44;98513.44;4811045;29;20339;-75
2022/07/02 17:08:20;;;;;;;;;;;;;;;29.45;78.11;98507.69;4810799;29;19951;-75
2022/07/02 17:13:34;;;;;;;;;;;;;;;29.33;79.34;98497.44;4801281;29;20240;-75
2022/07/02 17:16:01;;;;;;;;;;;;;;;29.34;78.76;98501.91;4810521;29;19956;-74
2022/07/02 17:18:28;;;;;;;;;;;;;;;29.25;77.86;98506.59;4808129;29;19949;-75
2022/07/02 17:20:56;;;;;;;;;;;;;;;29.22;79.20;98504.75;4810087;29;19961;-75
2022/07/02 17:23:26;;;;;;;;;;;;;;;29.18;82.07;98506.28;4810912;29;19972;-74
2022/07/02 17:25:54;;;;;;;;;;;;;;;29.13;78.77;98499.19;4810801;29;19959;-73
2022/07/02 17:28:21;;;;;;;;;;;;;;;29.08;79.08;98508.59;4810629;29;19955;-73
2022/07/02 17:30:48;;;;;;;;;;;;;;;29.05;79.96;98492.38;4809964;29;19956;-73
2022/07/02 17:33:16;;;;;;;;;;;;;;;29.00;80.66;98496.00;4810472;29;19957;-73
2022/07/02 17:35:43;;;;;;;;;;;;;;;28.97;79.03;98494.19;4810001;29;19951;-73
2022/07/02 17:38:10;;;;;;;;;;;;;;;28.96;79.53;98504.13;4817076;29;19962;-73
2022/07/02 17:40:37;;;;;;;;;;;;;;;28.94;82.77;98495.22;5043549;24;19984;-69
2022/07/02 17:43:05;;;;;;;;;;;;;;;28.91;82.96;98496.25;4824126;29;20270;-69
2022/07/02 17:45:32;;;;;;;;;;;;;;;28.85;81.39;98494.66;4826868;29;19951;-68
2022/07/02 17:47:59;;;;;;;;;;;;;;;28.87;79.17;98503.56;4826238;29;19953;-68
2022/07/02 17:50:27;;;;;;;;;;;;;;;28.85;81.18;98489.69;4828223;29;20344;-68
2022/07/02 17:52:54;;;;;;;;;;;;;;;28.80;83.69;98498.31;4828292;29;19950;-68
2022/07/02 17:55:23;;;;;;;;;;;;;;;28.78;85.27;98495.94;4828692;29;20551;-69
2022/07/02 17:57:50;;;;;;;;;;;;;;;28.68;82.04;98491.72;4828957;29;19955;-69
2022/07/02 18:00:18;;;;;;;;;;;;;;;28.66;81.25;98505.03;4828148;29;20249;-69
2022/07/02 18:02:46;;;;;;;;;;;;;;;28.63;82.29;98495.34;4822480;29;19951;-68
2022/07/02 18:05:13;;;;;;;;;;;;;;;28.59;82.39;98494.75;4827836;29;19965;-68
2022/07/02 18:07:41;;;;;;;;;;;;;;;28.51;84.77;98491.56;4826468;29;20617;-69
2022/07/02 18:10:08;;;;;;;;;;;;;;;28.47;84.14;98493.13;4831451;29;19946;-69
2022/07/02 18:12:35;;;;;;;;;;;;;;;28.42;84.09;98496.75;4821437;29;19958;-69
2022/07/02 18:15:03;;;;;;;;;;;;;;;28.37;83.20;98503.25;4827592;29;20254;-69
2022/07/02 18:17:30;;;;;;;;;;;;;;;28.33;80.95;98496.97;4825806;29;19965;-69
2022/07/02 18:19:57;;;;;;;;;;;;;;;28.34;80.18;98512.94;4828135;29;19956;-69
2022/07/02 18:22:25;;;;;;;;;;;;;;;28.30;79.86;98507.41;4823130;29;20253;-69
2022/07/02 18:24:52;;;;;;;;;;;;;;;28.27;81.01;98499.81;4821139;29;19965;-69
2022/07/02 18:27:20;;;;;;;;;;;;;;;28.24;80.83;98497.97;4827942;29;19972;-69
2022/07/02 18:29:47;;;;;;;;;;;;;;;28.21;82.47;98495.31;4828977;29;19952;-69
2022/07/02 18:32:14;;;;;;;;;;;;;;;28.17;82.50;98497.66;4823921;29;19957;-69
2022/07/02 18:34:42;;;;;;;;;;;;;;;28.13;82.07;98492.13;4822800;29;19965;-69
2022/07/02 18:37:09;;;;;;;;;;;;;;;28.10;82.06;98489.50;4828584;29;19973;-69
2022/07/02 18:39:37;;;;;;;;;;;;;;;28.07;81.63;98491.31;4826899;29;19957;-69
2022/07/02 18:42:04;;;;;;;;;;;;;;;28.05;81.26;98487.38;4827469;29;19950;-69
2022/07/02 18:44:32;;;;;;;;;;;;;;;27.99;82.29;98482.34;4831286;29;19967;-69
2022/07/02 18:46:59;;;;;;;;;;;;;;;27.99;83.98;98484.44;4827589;29;19953;-69
2022/07/02 18:49:27;;;;;;;;;;;;;;;27.97;81.65;98487.03;4826557;29;19962;-69
2022/07/02 18:51:54;;;;;;;;;;;;;;;27.94;82.09;98485.97;4826141;29;19953;-69
2022/07/02 18:54:24;;;;;;;;;;;;;;;27.93;81.95;98484.38;4819915;29;19950;-69
2022/07/02 18:56:54;;;;;;;;;;;;;;;27.89;82.77;98478.09;4821789;29;19957;-69
2022/07/02 18:59:24;;;;;;;;;;;;;;;27.85;83.14;98483.28;4827983;29;19954;-69
2022/07/02 19:01:53;;;;;;;;;;;;;;;27.83;81.99;98491.63;4828157;29;19952;-69
2022/07/02 19:04:20;;;;;;;;;;;;;;;27.84;81.28;98478.84;4828260;29;19970;-69
2022/07/02 19:06:48;;;;;;;;;;;;;;;27.82;81.82;98478.56;4827486;29;19964;-69
2022/07/02 19:09:15;;;;;;;;;;;;;;;27.80;82.00;98481.13;4827774;29;19951;-69
2022/07/02 19:11:43;;;;;;;;;;;;;;;27.79;81.89;98485.31;4810703;29;19949;-68
2022/07/02 19:14:11;;;;;;;;;;;;;;;27.80;81.65;98475.38;4827234;29;19960;-69
2022/07/02 19:16:38;;;;;;;;;;;;;;;27.82;81.78;98472.81;4827417;29;19958;-69
2022/07/02 19:19:05;;;;;;;;;;;;;;;27.81;81.51;98485.59;4827036;29;19956;-69
2022/07/02 19:21:33;;;;;;;;;;;;;;;27.80;82.85;98475.38;4827320;29;19949;-69
2022/07/02 19:24:07;;;;;;;;;;;;;;;27.80;81.95;98477.50;4830708;29;19964;-69
2022/07/02 19:32:11;;;;;;;;;;;;;;;27.73;82.98;98493.09;4827748;29;19955;-69
2022/07/02 19:34:38;;;;;;;;;;;;;;;27.72;83.21;98500.16;4826828;29;19956;-69
2022/07/02 19:37:05;;;;;;;;;;;;;;;27.69;84.13;98504.03;4827650;29;19951;-69
2022/07/02 19:39:33;;;;;;;;;;;;;;;27.65;85.59;98512.13;4826400;29;19954;-69
2022/07/02 19:42:00;;;;;;;;;;;;;;;27.62;85.18;98516.00;4825635;29;20248;-69
2022/07/02 19:44:27;;;;;;;;;;;;;;;27.60;86.47;98518.59;4827055;29;20354;-69
2022/07/02 19:46:55;;;;;;;;;;;;;;;27.57;86.92;98524.56;4826137;29;19955;-69
2022/07/02 19:49:22;;;;;;;;;;;;;;;27.53;86.82;98518.25;4826745;29;19960;-69
2022/07/02 19:51:49;;;;;;;;;;;;;;;27.52;87.38;98522.41;4826810;29;20422;-69
2022/07/02 19:54:17;;;;;;;;;;;;;;;27.46;89.45;98528.13;4811320;29;19957;-69
2022/07/02 19:56:44;;;;;;;;;;;;;;;27.39;90.43;98534.28;4826844;29;19950;-69
2022/07/02 19:59:11;;;;;;;;;;;;;;;27.34;90.40;98544.41;4827514;29;19957;-69
2022/07/02 20:01:42;;;;;;;;;;;;;;;27.33;90.27;98544.91;4826234;29;19951;-69
2022/07/02 20:04:10;;;;;;;;;;;;;;;27.28;91.03;98548.53;4836250;29;19958;-69
2022/07/02 20:06:37;;;;;;;;;;;;;;;27.23;90.92;98546.38;4829019;29;19956;-69
2022/07/02 20:09:04;;;;;;;;;;;;;;;27.20;90.89;98553.13;4826791;29;19974;-69
2022/07/02 20:11:32;;;;;;;;;;;;;;;27.17;90.65;98562.72;4827118;29;19967;-69
2022/07/02 20:13:59;;;;;;;;;;;;;;;27.16;90.64;98552.56;4824871;29;19952;-69
2022/07/02 20:16:27;;;;;;;;;;;;;;;27.15;91.00;98562.44;4819162;29;20342;-69
2022/07/02 20:18:54;;;;;;;;;;;;;;;27.13;90.80;98560.09;4825758;29;19955;-69
2022/07/02 20:21:21;;;;;;;;;;;;;;;27.11;91.68;98559.81;4829685;29;19954;-69
2022/07/02 20:23:48;;;;;;;;;;;;;;;27.09;92.09;98562.41;4825530;29;20250;-69
2022/07/02 20:26:16;;;;;;;;;;;;;;;27.08;90.98;98562.88;4825399;29;19984;-69
2022/07/02 20:28:44;;;;;;;;;;;;;;;27.06;91.28;98563.41;4828447;29;20335;-69
2022/07/02 20:31:13;;;;;;;;;;;;;;;27.02;91.85;98565.69;4825907;29;19963;-69
2022/07/02 20:33:41;;;;;;;;;;;;;;;26.92;92.41;98564.28;4827309;29;20348;-69
2022/07/02 20:36:08;;;;;;;;;;;;;;;26.93;93.20;98570.78;4826086;29;19945;-69
2022/07/02 20:38:35;;;;;;;;;;;;;;;26.88;93.19;98565.75;4823363;29;19957;-69
2022/07/02 20:41:05;;;;;;;;;;;;;;;26.90;93.04;98571.81;4825197;29;19970;-69
2022/07/02 20:43:32;;;;;;;;;;;;;;;26.88;94.43;98554.28;4825695;29;19951;-69
2022/07/02 20:45:59;;;;;;;;;;;;;;;26.87;94.64;98559.25;4828301;29;19997;-69
2022/07/02 20:48:27;;;;;;;;;;;;;;;26.86;94.89;98557.66;4826557;29;20330;-69
2022/07/02 20:50:54;;;;;;;;;;;;;;;26.82;95.40;98567.78;4826093;29;19950;-68
2022/07/02 20:53:21;;;;;;;;;;;;;;;26.84;95.45;98565.19;4828131;29;19957;-68
2022/07/02 20:55:49;;;;;;;;;;;;;;;26.80;95.36;98559.66;4810062;29;19951;-68
2022/07/02 20:58:16;;;;;;;;;;;;;;;26.73;96.82;98557.19;4810213;29;19949;-68
2022/07/02 21:00:43;;;;;;;;;;;;;;;26.70;96.41;98556.09;4825906;29;19949;-68
2022/07/02 21:03:11;;;;;;;;;;;;;;;26.68;96.34;98555.81;4825495;29;19959;-68
2022/07/02 21:05:38;;;;;;;;;;;;;;;26.68;96.96;98555.81;4825807;29;19994;-68
2022/07/02 21:08:05;;;;;;;;;;;;;;;26.67;96.45;98557.13;4826199;29;20349;-69
2022/07/02 21:10:32;;;;;;;;;;;;;;;26.64;97.27;98558.13;4809625;29;19958;-69
2022/07/02 21:13:00;;;;;;;;;;;;;;;26.57;97.85;98554.88;4826021;29;19960;-69
2022/07/02 21:15:27;;;;;;;;;;;;;;;26.57;98.75;98558.56;4825773;29;19949;-69
2022/07/02 21:17:55;;;;;;;;;;;;;;;26.45;99.35;98551.06;4825966;29;19948;-69
2022/07/02 21:20:22;;;;;;;;;;;;;;;26.41;99.86;98564.81;4825398;29;19958;-69
2022/07/02 21:22:49;;;;;;;;;;;;;;;26.40;100.00;98569.00;4825353;29;19954;-69
2022/07/02 21:25:17;;;;;;;;;;;;;;;26.32;100.00;98567.00;4824846;29;19981;-69
2022/07/02 21:27:44;;;;;;;;;;;;;;;26.26;100.00;98564.09;4828287;29;19952;-68
2022/07/02 21:30:11;;;;;;;;;;;;;;;26.25;100.00;98571.09;4835308;29;20328;-69
2022/07/02 21:32:39;;;;;;;;;;;;;;;26.20;100.00;98573.88;4844756;29;20327;-69
2022/07/02 21:35:08;;;;;;;;;;;;;;;26.19;100.00;98573.06;4843963;29;19949;-69
2022/07/02 21:37:36;;;;;;;;;;;;;;;26.12;100.00;98576.34;4847424;29;19949;-71
2022/07/02 21:40:04;;;;;;;;;;;;;;;26.03;100.00;98570.69;4847307;29;20003;-71
2022/07/02 21:42:31;;;;;;;;;;;;;;;25.94;100.00;98574.47;4847282;29;19974;-71
2022/07/02 21:44:58;;;;;;;;;;;;;;;25.93;100.00;98577.81;4847550;29;19954;-71
